Hicks Airfield Weather

No METAR data is available for Hicks Airfield, and nearby Alliance Airport's METAR data is commonly used by area pilots. Weather infomation is also available on 126.925 mhz.

  • Current KAFW METAR
    (5.8nm NE) MVFR
    Raw Text: KAFW 030253Z 15012KT 10SM OVC018 19/17 A2987 RMK AO2 LTG DSNT E SLP110 T01940167 53016
    Wind: 150° @ 12kts
    Visibility: 10.0sm
    Clouds (AGL): OVC at 1800ft
    Temperature: 19.4°C
    Dew Point: 16.7°C
    Altimeter: 29.87 inHg
  • Current KAFW TAF
    (5.8nm NE)
    Raw Text: KAFW 030251Z 0303/0324 17011KT P6SM OVC015 FM030700 17010KT P6SM OVC011 FM031500 20004KT P6SM VCSH OVC012 FM031600 23007KT P6SM VCSH OVC015 FM031800 33013KT P6SM VCSH OVC015 FM031900 34014KT P6SM OVC020